Time;durP1;ratioP1;P1;durP2;ratioP2;P2;SDS_P1;SDS_P2;PMS_P1;PMS_P2;Temp;Humidity;BMP_temperature;BMP_pressure;BME280_temperature;BME280_humidity;BME280_pressure;Samples;Min_cycle;Max_cycle;Signal;HPM_P1;HPM_P2
2024/01/01 00:01:22;;;;;;;125.97;59.83;;;;;;;6.27;95.94;100048.88;4976115;28;20088;-65
2024/01/01 00:03:47;;;;;;;105.93;48.57;;;;;;;6.27;96.21;100038.38;4968556;28;20037;-66
2024/01/01 00:06:12;;;;;;;110.28;52.85;;;;;;;6.31;95.87;100035.09;4967736;28;20035;-66
2024/01/01 00:08:38;;;;;;;127.80;57.30;;;;;;;6.28;95.54;100037.56;4968257;28;20039;-67
2024/01/01 00:11:03;;;;;;;123.53;57.87;;;;;;;6.26;95.75;100036.59;4968346;28;20490;-67
2024/01/01 00:13:28;;;;;;;120.27;54.93;;;;;;;6.24;95.95;100035.63;4968309;28;20043;-67
2024/01/01 00:15:54;;;;;;;102.13;49.00;;;;;;;6.21;95.86;100027.63;4967961;28;20122;-66
2024/01/01 00:18:20;;;;;;;97.20;44.08;;;;;;;6.20;96.09;100020.59;4968202;28;20114;-67
2024/01/01 00:20:45;;;;;;;87.30;40.97;;;;;;;6.22;96.11;100023.25;4968309;28;20069;-67
2024/01/01 00:23:10;;;;;;;95.97;41.93;;;;;;;6.24;95.77;100033.00;4968188;28;20035;-66
2024/01/01 00:25:36;;;;;;;85.18;38.00;;;;;;;6.25;95.62;100024.31;4967892;28;20038;-68
2024/01/01 00:28:06;;;;;;;78.33;35.37;;;;;;;6.22;95.67;100029.41;4968187;28;20447;-66
2024/01/01 00:30:34;;;;;;;65.22;32.08;;;;;;;6.26;95.85;100027.84;4967979;28;20066;-66
2024/01/01 00:33:00;;;;;;;64.33;28.80;;;;;;;6.24;95.73;100026.84;4968151;28;20509;-66
2024/01/01 00:35:25;;;;;;;68.25;32.15;;;;;;;6.23;95.48;100022.44;4967882;28;20031;-66
2024/01/01 00:37:51;;;;;;;78.07;35.10;;;;;;;6.23;95.74;100015.47;4967918;28;20053;-66
2024/01/01 00:40:16;;;;;;;73.43;34.43;;;;;;;6.23;95.58;100019.81;4968027;28;20145;-67
2024/01/01 00:42:47;;;;;;;52.93;26.20;;;;;;;6.22;95.64;100031.13;4966800;28;20054;-66
2024/01/01 00:45:12;;;;;;;71.80;34.78;;;;;;;6.22;95.71;100026.78;4967536;28;20042;-66
2024/01/01 00:47:37;;;;;;;77.30;31.90;;;;;;;6.18;95.56;100024.84;4968055;28;20039;-67
2024/01/01 00:50:04;;;;;;;48.72;21.90;;;;;;;6.17;95.49;100023.03;4967609;28;20031;-65
2024/01/01 00:52:29;;;;;;;39.60;19.40;;;;;;;6.21;95.44;100026.72;4968487;28;20035;-67
2024/01/01 00:54:54;;;;;;;34.45;16.42;;;;;;;6.22;95.24;100029.41;4968088;28;20046;-66
2024/01/01 00:57:20;;;;;;;38.33;16.00;;;;;;;6.23;95.51;100020.72;4968238;28;20110;-65
2024/01/01 00:59:45;;;;;;;31.73;13.50;;;;;;;6.24;95.40;100030.38;4967724;28;20173;-67
2024/01/01 01:02:12;;;;;;;24.70;11.30;;;;;;;6.27;95.22;100022.63;4976204;28;20046;-67
2024/01/01 01:04:37;;;;;;;26.05;11.73;;;;;;;6.33;94.85;100036.03;4970979;28;20030;-67
2024/01/01 01:07:05;;;;;;;26.20;11.68;;;;;;;6.34;94.56;100027.34;4970817;28;20038;-67
2024/01/01 01:09:30;;;;;;;22.53;9.50;;;;;;;6.36;94.57;100032.69;4970742;28;20034;-67
2024/01/01 01:11:55;;;;;;;21.55;9.63;;;;;;;6.34;94.27;100029.06;4971071;28;20084;-67
2024/01/01 01:14:21;;;;;;;25.73;11.13;;;;;;;6.35;94.19;100031.78;4970439;28;20037;-67
2024/01/01 01:19:13;;;;;;;22.53;9.83;;;;;;;6.32;93.92;100026.38;5063806;28;20395;-65
2024/01/01 01:21:39;;;;;;;23.95;10.90;;;;;;;6.31;94.33;100029.84;5046021;28;20048;-66
2024/01/01 01:24:05;;;;;;;24.67;10.50;;;;;;;6.33;94.45;100027.28;5047121;28;20116;-65
2024/01/01 01:26:30;;;;;;;26.57;11.33;;;;;;;6.30;94.32;100021.91;5046729;28;20550;-66
2024/01/01 01:28:56;;;;;;;32.73;12.23;;;;;;;6.29;94.28;100026.25;5045738;28;20049;-66
2024/01/01 01:31:22;;;;;;;24.30;11.00;;;;;;;6.28;94.22;100024.44;5047120;28;20286;-65
2024/01/01 01:33:48;;;;;;;25.35;10.13;;;;;;;6.22;94.12;100029.41;5046055;28;20425;-65
2024/01/01 01:36:14;;;;;;;23.05;9.73;;;;;;;6.21;94.47;100026.72;5046643;28;20055;-65
2024/01/01 01:38:39;;;;;;;23.27;9.13;;;;;;;6.21;94.55;100022.38;5045747;28;20398;-65
2024/01/01 01:41:04;;;;;;;21.37;8.77;;;;;;;6.20;94.25;100031.06;5045720;28;20033;-65
2024/01/01 01:43:30;;;;;;;22.47;8.77;;;;;;;6.16;94.35;100023.88;5046938;28;20033;-66
2024/01/01 01:45:56;;;;;;;26.88;9.18;;;;;;;6.15;94.47;100022.09;5046854;28;20037;-65
2024/01/01 01:48:22;;;;;;;21.30;9.07;;;;;;;6.10;94.41;100034.09;5046978;28;20025;-65
2024/01/01 01:50:49;;;;;;;20.07;9.23;;;;;;;6.05;94.49;100020.75;5047395;28;20456;-66
2024/01/01 01:53:15;;;;;;;25.50;9.65;;;;;;;6.02;94.86;100024.94;5049511;28;20029;-65
2024/01/01 01:55:42;;;;;;;22.17;8.50;;;;;;;5.97;94.72;100024.72;5048603;28;20082;-65
2024/01/01 01:58:08;;;;;;;21.27;9.47;;;;;;;5.96;95.27;100008.94;5045525;28;20868;-65
2024/01/01 02:00:33;;;;;;;22.65;9.57;;;;;;;5.97;95.18;100010.75;5049933;28;20051;-65
2024/01/01 02:02:59;;;;;;;28.77;10.93;;;;;;;5.96;95.22;100006.34;5048785;28;20029;-66
2024/01/01 02:05:25;;;;;;;24.15;10.02;;;;;;;5.93;95.30;100004.44;5045111;28;20504;-65
2024/01/01 02:07:51;;;;;;;26.33;11.52;;;;;;;5.91;95.20;100006.13;5045429;28;20033;-65
2024/01/01 02:10:16;;;;;;;29.40;10.60;;;;;;;5.91;95.34;99999.97;5025930;28;20048;-66
2024/01/01 02:12:44;;;;;;;26.97;11.83;;;;;;;5.89;95.20;100002.50;5055924;28;20545;-66
2024/01/01 02:15:09;;;;;;;21.52;10.25;;;;;;;5.87;95.45;100003.28;5045949;28;20064;-66
2024/01/01 02:17:35;;;;;;;24.33;10.50;;;;;;;5.85;95.17;100000.53;5046318;28;20065;-65
2024/01/01 02:20:00;;;;;;;21.77;8.88;;;;;;;5.87;95.36;100005.91;5046037;28;20504;-65
2024/01/01 02:22:36;;;;;;;22.23;9.83;;;;;;;5.93;95.45;100009.69;5046279;28;20029;-65
2024/01/01 02:25:01;;;;;;;23.13;9.05;;;;;;;5.97;94.79;100005.50;5044603;28;20075;-65
2024/01/01 02:27:27;;;;;;;24.37;8.60;;;;;;;5.94;94.79;100015.81;5046297;28;20060;-65
2024/01/01 02:29:53;;;;;;;22.50;8.38;;;;;;;5.94;94.75;100010.59;5027710;28;20068;-66
2024/01/01 02:32:18;;;;;;;20.53;8.40;;;;;;;5.87;94.56;100005.91;5014369;28;20128;-65
2024/01/01 02:34:43;;;;;;;20.83;8.40;;;;;;;5.85;94.58;100005.78;5031418;28;20037;-65
2024/01/01 02:37:09;;;;;;;17.93;7.67;;;;;;;5.85;94.78;100011.03;5032370;28;20048;-66
2024/01/01 02:39:34;;;;;;;20.15;7.97;;;;;;;5.82;94.48;100012.59;5032485;28;20043;-65
2024/01/01 02:42:00;;;;;;;27.10;8.20;;;;;;;5.79;94.75;100007.19;5032670;28;20052;-66
2024/01/01 02:44:25;;;;;;;17.80;7.20;;;;;;;5.73;94.88;100010.41;5032385;28;20049;-66
2024/01/01 02:46:51;;;;;;;20.30;7.10;;;;;;;5.74;95.29;100001.75;5032382;28;20551;-66
2024/01/01 02:49:16;;;;;;;18.37;6.63;;;;;;;5.78;95.13;100008.03;5032225;28;20148;-66
2024/01/01 02:51:42;;;;;;;17.85;6.60;;;;;;;5.82;95.17;100000.38;5032541;28;20287;-65
2024/01/01 02:54:08;;;;;;;16.43;6.70;;;;;;;5.79;94.62;99999.34;5030957;28;20505;-66
2024/01/01 02:56:33;;;;;;;16.50;6.85;;;;;;;5.76;94.78;100010.59;5032246;28;20120;-65
2024/01/01 02:58:58;;;;;;;19.57;7.20;;;;;;;5.75;94.68;100002.66;5031940;28;20040;-65
2024/01/01 03:01:24;;;;;;;22.07;7.17;;;;;;;5.70;95.08;99998.91;5040438;28;20103;-65
2024/01/01 03:03:50;;;;;;;20.08;7.18;;;;;;;5.67;95.00;99998.78;5030875;28;20470;-66
2024/01/01 03:06:18;;;;;;;21.07;8.17;;;;;;;5.62;95.37;100003.78;5031887;28;20249;-65
2024/01/01 03:08:44;;;;;;;16.88;7.30;;;;;;;5.60;95.29;100011.56;5032161;28;20406;-65
2024/01/01 03:11:10;;;;;;;17.57;6.53;;;;;;;5.56;95.61;100007.00;5031819;28;20087;-66
2024/01/01 03:13:35;;;;;;;15.55;6.10;;;;;;;5.54;95.32;100006.03;5032045;28;20037;-66
2024/01/01 03:16:01;;;;;;;16.90;6.67;;;;;;;5.49;95.52;100001.38;5030482;28;20034;-66
2024/01/01 03:18:27;;;;;;;14.57;6.93;;;;;;;5.45;95.47;100002.06;5030685;28;20101;-65
2024/01/01 03:20:52;;;;;;;17.10;7.20;;;;;;;5.40;95.62;100004.44;5023104;28;20030;-65
2024/01/01 03:23:18;;;;;;;17.23;7.67;;;;;;;5.43;96.06;100004.59;5017842;28;20111;-66
2024/01/01 03:25:44;;;;;;;17.73;7.20;;;;;;;5.44;96.08;100009.00;5012069;28;20034;-65
2024/01/01 03:28:10;;;;;;;15.07;6.97;;;;;;;5.46;95.88;99999.53;5027470;28;20350;-66
2024/01/01 03:30:38;;;;;;;22.97;8.33;;;;;;;5.46;96.03;100004.75;5030513;28;20116;-65
2024/01/01 03:33:03;;;;;;;22.37;8.03;;;;;;;5.47;96.06;99993.47;5031713;28;20314;-66
2024/01/01 03:35:31;;;;;;;16.00;6.18;;;;;;;5.45;96.04;99992.47;5030584;28;20506;-67
2024/01/01 03:38:00;;;;;;;21.38;6.93;;;;;;;5.47;96.21;100000.44;5015392;28;20376;-66
2024/01/01 03:40:25;;;;;;;19.73;7.77;;;;;;;5.44;96.02;99997.63;5022949;28;20107;-65
2024/01/01 03:42:50;;;;;;;20.70;8.07;;;;;;;5.42;96.43;99994.97;5025305;28;20444;-65
2024/01/01 03:45:16;;;;;;;20.03;7.27;;;;;;;5.44;96.22;99993.28;5031391;28;20292;-65
2024/01/01 03:47:42;;;;;;;18.17;7.27;;;;;;;5.44;96.24;99998.53;5033024;28;20032;-66
2024/01/01 03:50:08;;;;;;;23.40;9.63;;;;;;;5.39;96.32;99993.88;5030919;28;20517;-65
2024/01/01 03:52:33;;;;;;;19.83;8.63;;;;;;;5.38;96.57;100000.84;5030966;28;20164;-66
2024/01/01 03:54:59;;;;;;;23.88;9.25;;;;;;;5.34;96.55;99998.91;5031918;28;20116;-66
2024/01/01 03:57:24;;;;;;;21.03;8.30;;;;;;;5.31;96.62;99997.88;5031699;28;20075;-66
2024/01/01 03:59:50;;;;;;;23.17;8.40;;;;;;;5.37;96.82;99998.19;5031318;28;20037;-66
2024/01/01 04:02:15;;;;;;;22.27;8.55;;;;;;;5.40;96.41;99999.22;5038494;28;20068;-65
2024/01/01 04:04:44;;;;;;;25.87;8.83;;;;;;;5.40;96.32;100003.56;5029906;28;20033;-66
2024/01/01 04:07:13;;;;;;;21.65;8.57;;;;;;;5.41;96.32;99993.16;5029459;28;20108;-66
2024/01/01 04:09:38;;;;;;;25.03;9.73;;;;;;;5.43;96.03;99994.13;5031134;28;20056;-66
2024/01/01 04:12:04;;;;;;;27.17;11.18;;;;;;;5.42;95.99;99991.44;5029764;28;20056;-66
2024/01/01 04:14:29;;;;;;;24.53;9.30;;;;;;;5.44;95.94;99993.28;5029306;28;20075;-66
2024/01/01 04:16:55;;;;;;;25.77;9.80;;;;;;;5.46;95.91;99986.44;5030465;28;20048;-66
2024/01/01 04:19:23;;;;;;;20.50;9.13;;;;;;;5.49;95.70;99983.03;5030470;28;20055;-65
2024/01/01 04:21:49;;;;;;;20.00;7.47;;;;;;;5.54;95.49;99987.69;5030592;28;20414;-67
2024/01/01 04:24:14;;;;;;;24.37;9.00;;;;;;;5.62;95.30;99980.22;5029101;28;20112;-66
2024/01/01 04:26:39;;;;;;;22.67;9.43;;;;;;;5.68;95.25;99984.81;5016763;28;20161;-65
2024/01/01 04:29:05;;;;;;;22.50;9.37;;;;;;;5.68;95.10;99985.72;5019487;28;20275;-66
2024/01/01 04:31:30;;;;;;;23.43;9.80;;;;;;;5.72;95.18;99986.78;5030611;28;20036;-66
2024/01/01 04:33:56;;;;;;;25.97;9.73;;;;;;;5.76;94.95;99989.63;5030512;28;20129;-66
2024/01/01 04:36:21;;;;;;;26.00;10.27;;;;;;;5.76;94.78;99984.38;5029868;28;20086;-66
2024/01/01 04:38:47;;;;;;;26.92;9.13;;;;;;;5.78;94.65;99992.28;5029623;28;20379;-66
2024/01/01 04:41:13;;;;;;;22.40;9.40;;;;;;;5.79;94.99;99987.13;5030374;28;20041;-66
2024/01/01 04:43:40;;;;;;;20.20;7.87;;;;;;;5.82;94.58;99989.03;5030647;28;20525;-66
2024/01/01 04:46:06;;;;;;;23.50;9.10;;;;;;;5.86;94.69;99990.97;5029957;28;20037;-66
2024/01/01 04:48:32;;;;;;;22.23;9.73;;;;;;;5.90;94.61;99990.31;5030193;28;20025;-66
2024/01/01 04:50:58;;;;;;;21.47;8.40;;;;;;;5.91;94.20;99986.88;5030032;28;20511;-66
2024/01/01 04:53:24;;;;;;;23.70;9.52;;;;;;;5.93;94.30;99987.81;5030084;28;20037;-66
2024/01/01 04:55:52;;;;;;;23.25;9.25;;;;;;;5.94;94.26;99984.38;5029933;28;20142;-67
2024/01/01 04:58:19;;;;;;;22.00;8.57;;;;;;;5.94;94.11;99985.28;5030788;28;20037;-66
2024/01/01 05:00:44;;;;;;;25.13;10.23;;;;;;;5.95;94.07;99987.09;5032765;28;20036;-66
2024/01/01 05:03:10;;;;;;;24.53;10.50;;;;;;;5.96;94.21;99988.88;5030778;28;20045;-66
2024/01/01 05:05:35;;;;;;;20.55;9.85;;;;;;;5.94;93.98;99981.75;5029779;28;20381;-65
2024/01/01 05:08:01;;;;;;;23.30;9.20;;;;;;;5.95;93.84;99979.22;5030178;28;20406;-66
2024/01/01 05:10:26;;;;;;;23.00;10.10;;;;;;;5.95;93.97;99978.31;5030055;28;20577;-66
2024/01/01 05:12:52;;;;;;;21.70;9.57;;;;;;;5.97;94.06;99974.94;5029956;28;20044;-66
2024/01/01 05:15:17;;;;;;;23.77;8.20;;;;;;;5.99;93.85;99977.63;5028316;28;20039;-67
2024/01/01 05:17:43;;;;;;;20.27;8.37;;;;;;;5.99;93.97;99975.00;5029521;28;20045;-66
2024/01/01 05:20:09;;;;;;;17.55;7.30;;;;;;;5.96;93.91;99982.75;5026727;28;20046;-65
2024/01/01 05:22:34;;;;;;;22.77;8.00;;;;;;;5.96;93.93;99973.16;5030225;28;20080;-66
2024/01/01 05:25:00;;;;;;;24.13;8.13;;;;;;;5.96;93.93;99978.41;5029547;28;20542;-66
2024/01/01 05:27:25;;;;;;;22.57;8.07;;;;;;;5.96;94.22;99967.00;5029869;28;20033;-65
2024/01/01 05:29:51;;;;;;;19.50;7.83;;;;;;;5.97;94.30;99971.44;5029722;28;20685;-66
2024/01/01 05:32:16;;;;;;;19.77;8.13;;;;;;;5.98;94.13;99965.34;5029850;28;20048;-66
2024/01/01 05:34:41;;;;;;;17.60;7.63;;;;;;;5.99;94.23;99973.28;5029517;28;20044;-66
2024/01/01 05:37:08;;;;;;;19.67;7.83;;;;;;;6.00;94.10;99974.19;5029425;28;20120;-65
2024/01/01 05:39:34;;;;;;;16.20;6.80;;;;;;;5.99;94.13;99977.63;5029649;28;20073;-66
2024/01/01 05:41:59;;;;;;;18.83;7.90;;;;;;;6.00;93.99;99985.56;5029747;28;20073;-66
2024/01/01 05:44:25;;;;;;;14.40;6.60;;;;;;;6.02;94.12;99988.25;5029576;28;20576;-66
2024/01/01 05:46:50;;;;;;;18.27;7.33;;;;;;;6.06;93.95;99983.25;5028503;28;20288;-65
2024/01/01 05:49:15;;;;;;;19.73;8.07;;;;;;;6.06;93.69;99983.25;5029385;28;20033;-65
2024/01/01 05:51:41;;;;;;;22.70;7.57;;;;;;;6.04;93.85;99979.66;5029736;28;20429;-66
2024/01/01 05:54:06;;;;;;;20.17;7.30;;;;;;;6.02;94.30;99983.91;5028334;28;20040;-66
2024/01/01 05:56:31;;;;;;;22.33;7.33;;;;;;;6.01;94.34;99979.50;5029197;28;20481;-66
2024/01/01 05:58:57;;;;;;;19.17;7.90;;;;;;;6.01;94.70;99983.84;5029325;28;20394;-66
2024/01/01 06:01:22;;;;;;;17.20;7.17;;;;;;;6.00;94.73;99990.81;5029508;28;20552;-66
2024/01/01 06:03:48;;;;;;;19.17;8.00;;;;;;;6.00;94.89;99996.06;5029736;28;20032;-66
2024/01/01 06:06:13;;;;;;;17.17;7.17;;;;;;;6.01;95.20;99990.00;5033234;28;20041;-66
2024/01/01 06:08:39;;;;;;;17.87;7.33;;;;;;;6.02;95.23;99998.72;5033089;28;20272;-67
2024/01/01 06:11:04;;;;;;;15.43;6.20;;;;;;;6.00;95.08;99990.81;5032973;28;20037;-66
2024/01/01 06:13:29;;;;;;;17.20;6.70;;;;;;;6.00;95.23;99990.81;5033293;28;20037;-65
2024/01/01 06:15:55;;;;;;;17.17;7.13;;;;;;;6.03;95.48;99992.66;5032814;28;20154;-66
2024/01/01 06:18:21;;;;;;;17.40;6.93;;;;;;;6.03;95.27;99993.56;5032909;28;20032;-66
2024/01/01 06:20:47;;;;;;;15.97;6.00;;;;;;;6.07;95.13;99991.97;5032766;28;20288;-66
2024/01/01 06:23:12;;;;;;;17.25;6.72;;;;;;;6.10;95.13;99986.91;5032988;28;20087;-66
2024/01/01 06:25:37;;;;;;;17.83;6.20;;;;;;;6.11;95.23;99977.31;5032678;28;20041;-66
2024/01/01 06:28:03;;;;;;;14.57;5.80;;;;;;;6.13;95.05;99973.03;5032860;28;20041;-66
2024/01/01 06:30:30;;;;;;;15.13;5.70;;;;;;;6.14;94.90;99978.34;5032727;28;20042;-66
2024/01/01 06:32:55;;;;;;;12.93;5.32;;;;;;;6.19;95.02;99975.94;5032684;28;20087;-65
2024/01/01 06:35:21;;;;;;;19.40;5.83;;;;;;;6.21;94.73;99979.53;5032497;28;20030;-66
2024/01/01 06:37:46;;;;;;;13.27;5.13;;;;;;;6.20;94.95;99976.00;5032521;28;20466;-65
2024/01/01 06:40:12;;;;;;;14.37;5.37;;;;;;;6.26;94.78;99984.16;5029302;28;20120;-65
2024/01/01 06:42:37;;;;;;;15.80;4.80;;;;;;;6.30;94.44;99987.81;5013024;28;20037;-65
2024/01/01 06:45:07;;;;;;;14.13;4.80;;;;;;;6.32;94.44;99981.78;5021040;28;20112;-66
2024/01/01 06:47:33;;;;;;;14.23;5.03;;;;;;;6.33;94.47;99980.06;5020065;28;20026;-65
2024/01/01 06:49:58;;;;;;;13.23;5.00;;;;;;;6.35;94.09;99979.34;5027305;28;20528;-66
2024/01/01 06:52:23;;;;;;;17.42;5.93;;;;;;;6.35;94.15;99976.72;5032386;28;20102;-66
2024/01/01 06:54:49;;;;;;;14.63;4.27;;;;;;;6.35;93.89;99978.44;5032072;28;20541;-66
2024/01/01 06:57:14;;;;;;;13.50;5.03;;;;;;;6.34;93.95;99988.03;5032277;28;20030;-65
2024/01/01 06:59:39;;;;;;;13.63;4.20;;;;;;;6.31;94.26;99993.13;5031962;28;20758;-67
2024/01/01 07:02:05;;;;;;;13.23;4.63;;;;;;;6.30;94.28;99995.69;5031672;28;20048;-66
2024/01/01 07:04:31;;;;;;;16.67;4.45;;;;;;;6.30;94.34;100004.44;5032052;28;20033;-65
2024/01/01 07:06:56;;;;;;;11.97;4.27;;;;;;;6.29;94.35;100004.38;5032087;28;20067;-65
2024/01/01 07:09:22;;;;;;;12.77;4.53;;;;;;;6.30;94.44;100006.16;5023562;28;20492;-66
2024/01/01 07:11:47;;;;;;;15.10;4.37;;;;;;;6.28;94.34;100011.34;5031912;28;20044;-66
2024/01/01 07:14:13;;;;;;;9.73;3.60;;;;;;;6.28;94.31;100013.06;5031427;28;20052;-66
2024/01/01 07:16:38;;;;;;;12.07;4.07;;;;;;;6.26;94.18;100005.13;5031459;28;20480;-66
2024/01/01 07:19:03;;;;;;;12.63;3.93;;;;;;;6.24;94.34;100006.78;5029832;28;20030;-65
2024/01/01 07:21:29;;;;;;;12.43;4.20;;;;;;;6.24;94.34;100003.25;5012302;28;20034;-66
2024/01/01 07:23:54;;;;;;;10.23;3.87;;;;;;;6.20;94.48;100015.34;5011770;28;20040;-66
2024/01/01 07:26:20;;;;;;;9.60;3.03;;;;;;;6.20;94.25;100011.81;5012218;28;20705;-66
2024/01/01 07:28:45;;;;;;;11.67;3.80;;;;;;;6.19;94.23;100015.25;5029882;28;20405;-66
2024/01/01 07:31:11;;;;;;;10.17;3.37;;;;;;;6.17;94.37;100017.78;5031643;28;20121;-65
2024/01/01 07:33:36;;;;;;;10.13;3.30;;;;;;;6.13;94.19;100015.88;5031860;28;20280;-65
2024/01/01 07:36:02;;;;;;;10.87;3.50;;;;;;;6.11;94.36;100008.78;5031432;28;20112;-65
2024/01/01 07:38:27;;;;;;;9.27;2.97;;;;;;;6.08;94.41;100014.75;5031792;28;20287;-66
2024/01/01 07:40:52;;;;;;;10.60;3.47;;;;;;;6.06;94.38;100005.94;5031458;28;20510;-65
2024/01/01 07:43:19;;;;;;;9.47;3.43;;;;;;;6.07;93.85;100002.47;5031421;28;20112;-66
2024/01/01 07:45:44;;;;;;;14.73;3.58;;;;;;;6.06;93.88;100005.94;5031298;28;20520;-65
2024/01/01 07:48:09;;;;;;;11.40;3.57;;;;;;;6.04;94.07;100010.19;5031457;28;20112;-65
2024/01/01 07:50:35;;;;;;;11.03;3.03;;;;;;;6.08;93.78;100015.66;5031567;28;20025;-65
2024/01/01 07:53:01;;;;;;;11.32;3.40;;;;;;;6.14;93.72;100019.38;5031218;28;20054;-66
2024/01/01 07:55:27;;;;;;;8.37;3.20;;;;;;;6.19;93.57;100023.13;5031382;28;20080;-66
2024/01/01 07:57:53;;;;;;;8.00;2.75;;;;;;;6.27;93.60;100025.25;5029986;28;20516;-66
2024/01/01 08:00:19;;;;;;;8.55;2.90;;;;;;;6.38;93.14;100024.03;5028351;28;20061;-66
2024/01/01 08:02:44;;;;;;;8.90;2.83;;;;;;;6.51;92.78;100029.00;5011528;28;20068;-66
2024/01/01 08:05:10;;;;;;;9.77;2.90;;;;;;;6.56;92.55;100028.34;5012155;28;20148;-66
2024/01/01 08:07:35;;;;;;;10.67;2.90;;;;;;;6.59;92.56;100032.00;5012557;28;20026;-66
2024/01/01 08:10:01;;;;;;;9.68;3.00;;;;;;;6.67;92.66;100035.84;5011063;28;20583;-67
2024/01/01 08:12:26;;;;;;;9.40;2.70;;;;;;;6.74;92.36;100032.69;5011315;28;20038;-66
2024/01/01 08:14:53;;;;;;;9.93;2.90;;;;;;;6.81;92.07;100039.06;5024781;28;20025;-66
2024/01/01 08:17:18;;;;;;;10.02;2.80;;;;;;;6.84;92.17;100036.59;5011945;28;20048;-67
2024/01/01 08:19:43;;;;;;;10.87;3.27;;;;;;;6.88;92.21;100035.91;5010997;28;20038;-66
2024/01/01 08:22:09;;;;;;;7.73;3.27;;;;;;;6.94;91.83;100033.56;5011152;28;20542;-66
2024/01/01 08:24:35;;;;;;;9.57;2.80;;;;;;;7.01;91.62;100046.09;5010821;28;20044;-67
2024/01/01 08:27:00;;;;;;;11.35;2.67;;;;;;;7.05;91.31;100049.78;5010324;28;20029;-66
2024/01/01 08:29:26;;;;;;;13.82;3.08;;;;;;;7.11;91.43;100045.69;5022252;28;20129;-66
2024/01/01 08:31:51;;;;;;;9.70;3.40;;;;;;;7.19;91.31;100053.91;5030611;28;20465;-66
2024/01/01 08:34:16;;;;;;;12.90;2.87;;;;;;;7.25;91.29;100044.53;5030530;28;20033;-66
2024/01/01 08:36:42;;;;;;;9.57;2.70;;;;;;;7.32;91.18;100048.34;5030382;28;20080;-66
2024/01/01 08:39:09;;;;;;;9.83;2.63;;;;;;;7.41;91.22;100042.56;5030088;28;20124;-66
2024/01/01 08:41:41;;;;;;;8.52;2.53;;;;;;;7.48;90.90;100044.63;5030416;28;20029;-66
2024/01/01 08:44:07;;;;;;;8.82;2.30;;;;;;;7.55;90.78;100051.94;5003417;28;20040;-67
2024/01/01 08:46:33;;;;;;;6.85;2.10;;;;;;;7.64;90.73;100049.69;5024412;28;20022;-66
2024/01/01 08:48:58;;;;;;;11.30;2.73;;;;;;;7.67;90.24;100050.72;5009972;28;20134;-67
2024/01/01 08:51:23;;;;;;;8.57;2.57;;;;;;;7.74;88.66;100051.88;5010640;28;20422;-66
2024/01/01 08:53:49;;;;;;;8.32;2.13;;;;;;;7.82;88.59;100053.06;5010576;28;20034;-66
2024/01/01 08:56:15;;;;;;;8.67;2.60;;;;;;;7.86;88.48;100049.72;5010082;28;20076;-66
2024/01/01 08:58:40;;;;;;;9.57;2.50;;;;;;;7.90;88.55;100056.88;5010244;28;20072;-66
2024/01/01 09:01:06;;;;;;;6.07;2.30;;;;;;;7.94;88.77;100061.47;5010600;28;20064;-66
2024/01/01 09:03:31;;;;;;;6.43;1.80;;;;;;;7.94;88.77;100061.47;5010468;28;20056;-66
2024/01/01 09:06:00;;;;;;;8.13;2.13;;;;;;;7.93;88.35;100059.66;5010192;28;20116;-66
2024/01/01 09:08:25;;;;;;;7.45;2.40;;;;;;;7.95;88.20;100063.22;5010670;28;20034;-66
2024/01/01 09:10:51;;;;;;;6.60;1.73;;;;;;;7.95;88.51;100059.69;5010120;28;20060;-67
2024/01/01 09:13:16;;;;;;;11.45;2.42;;;;;;;7.95;87.21;100063.22;5010399;28;20446;-66
2024/01/01 09:15:42;;;;;;;9.10;2.30;;;;;;;7.96;87.65;100065.03;5010232;28;20104;-66
2024/01/01 09:18:07;;;;;;;6.93;2.40;;;;;;;7.95;87.83;100073.75;5010152;28;20406;-66
2024/01/01 09:20:33;;;;;;;7.80;2.13;;;;;;;7.93;87.40;100070.19;5010279;28;20398;-66
2024/01/01 09:22:59;;;;;;;8.07;2.30;;;;;;;7.93;87.24;100064.94;5010172;28;20117;-67
2024/01/01 09:25:24;;;;;;;6.80;1.98;;;;;;;7.95;87.46;100068.50;5009809;28;20507;-66
2024/01/01 09:27:50;;;;;;;7.80;2.53;;;;;;;7.93;87.32;100064.94;5010212;28;20453;-66
2024/01/01 09:30:16;;;;;;;8.47;2.33;;;;;;;7.93;87.61;100062.28;5010247;28;20092;-66
2024/01/01 09:32:41;;;;;;;10.60;2.53;;;;;;;7.92;87.46;100060.50;5010230;28;20048;-66
2024/01/01 09:35:08;;;;;;;7.00;2.03;;;;;;;7.92;87.43;100062.22;5009944;28;20037;-66
2024/01/01 09:37:33;;;;;;;5.82;2.03;;;;;;;7.91;87.62;100063.94;5010086;28;20042;-66
2024/01/01 09:39:59;;;;;;;7.97;2.43;;;;;;;7.92;87.30;100068.38;5026270;28;20045;-67
2024/01/01 09:42:25;;;;;;;6.60;1.95;;;;;;;7.92;86.99;100063.13;5030538;28;20037;-66
2024/01/01 09:44:50;;;;;;;9.23;2.28;;;;;;;7.88;86.96;100066.47;5028984;28;20041;-66
2024/01/01 09:47:16;;;;;;;10.07;2.40;;;;;;;7.88;87.08;100065.56;5025674;28;20041;-66
2024/01/01 09:49:41;;;;;;;9.03;2.47;;;;;;;7.90;86.51;100069.13;5033945;28;20464;-67
2024/01/01 09:52:11;;;;;;;9.50;2.10;;;;;;;7.90;85.91;100069.13;5033492;28;20037;-66
2024/01/01 09:54:36;;;;;;;8.52;2.10;;;;;;;7.91;86.10;100070.94;5033812;28;20045;-65
2024/01/01 09:57:05;;;;;;;7.00;2.50;;;;;;;7.96;86.07;100062.41;5033079;28;20156;-66
2024/01/01 09:59:39;;;;;;;8.15;2.28;;;;;;;8.07;85.96;100062.84;5032096;28;20030;-66
2024/01/01 10:02:06;;;;;;;10.60;3.00;;;;;;;8.19;85.30;100058.94;5033390;28;20433;-67
2024/01/01 10:04:32;;;;;;;7.25;2.50;;;;;;;8.35;84.98;100065.75;5033638;28;20042;-66
2024/01/01 10:07:04;;;;;;;12.83;2.47;;;;;;;8.46;84.46;100063.53;5033036;28;20040;-67
2024/01/01 10:09:30;;;;;;;9.05;2.20;;;;;;;8.56;84.13;100057.78;5033042;28;20075;-67
2024/01/01 10:12:09;;;;;;;10.57;2.15;;;;;;;8.56;83.64;100060.41;5033498;28;20034;-67
2024/01/01 10:14:44;;;;;;;10.23;2.10;;;;;;;8.57;84.01;100056.94;5032961;28;20033;-67
2024/01/01 10:17:11;;;;;;;10.00;2.72;;;;;;;8.52;83.92;100053.25;5032719;28;20072;-66
2024/01/01 10:19:53;;;;;;;8.23;2.60;;;;;;;8.50;83.83;100052.28;5033056;28;20119;-65
2024/01/01 10:22:19;;;;;;;8.80;1.92;;;;;;;8.46;84.43;100058.25;5033061;28;20056;-67
2024/01/01 10:24:46;;;;;;;8.27;1.83;;;;;;;8.42;84.49;100061.63;5033101;28;20034;-65
2024/01/01 10:27:16;;;;;;;9.32;2.50;;;;;;;8.36;84.17;100066.63;5032812;28;20516;-66
2024/01/01 10:29:47;;;;;;;7.32;2.38;;;;;;;8.31;83.72;100061.19;5032946;28;20049;-66
2024/01/01 10:32:15;;;;;;;6.13;2.27;;;;;;;8.33;83.45;100058.66;5032986;28;20042;-66
2024/01/01 10:34:40;;;;;;;7.72;2.65;;;;;;;8.37;83.81;100064.06;5032412;28;20037;-66
2024/01/01 10:37:08;;;;;;;9.80;2.53;;;;;;;8.41;83.39;100059.81;5032577;28;20126;-66
2024/01/01 10:39:35;;;;;;;10.45;2.47;;;;;;;8.43;82.98;100068.69;5032726;28;20036;-66
2024/01/01 10:42:02;;;;;;;7.45;2.08;;;;;;;8.43;83.18;100064.31;5032780;28;20026;-66
2024/01/01 10:44:31;;;;;;;7.30;2.47;;;;;;;8.46;83.53;100063.53;5024576;28;20537;-66
2024/01/01 10:47:09;;;;;;;7.90;2.47;;;;;;;8.42;83.52;100069.50;5032776;28;20120;-70
2024/01/01 10:49:39;;;;;;;10.38;2.30;;;;;;;8.42;83.76;100062.53;5023925;28;20029;-67
2024/01/01 10:52:22;;;;;;;7.55;1.88;;;;;;;8.45;83.54;100065.25;5032257;28;20041;-65
2024/01/01 10:55:21;;;;;;;11.00;2.40;;;;;;;8.51;83.68;100065.50;5032089;28;20028;-66
2024/01/01 10:58:11;;;;;;;6.30;1.83;;;;;;;8.57;83.69;100065.75;5032292;28;20497;-66
2024/01/01 11:01:02;;;;;;;8.38;2.25;;;;;;;8.59;82.93;100060.50;5032163;28;20044;-66
2024/01/01 11:03:29;;;;;;;7.20;2.22;;;;;;;8.66;83.07;100063.44;5016351;28;20440;-65
2024/01/01 11:05:54;;;;;;;8.18;2.20;;;;;;;8.75;82.75;100065.50;5031755;28;20034;-65
2024/01/01 11:08:27;;;;;;;8.43;2.53;;;;;;;8.79;82.59;100070.06;5031900;28;20458;-66
2024/01/01 11:10:54;;;;;;;10.35;3.08;;;;;;;8.80;81.89;100065.69;5025823;28;20045;-66
2024/01/01 11:13:42;;;;;;;9.18;2.22;;;;;;;8.83;81.33;100064.06;5032250;28;20528;-66
2024/01/01 11:16:07;;;;;;;6.97;1.70;;;;;;;8.88;81.58;100065.13;5032470;28;20216;-66
2024/01/01 11:18:38;;;;;;;10.73;2.67;;;;;;;8.88;81.24;100074.78;5030220;28;20037;-65
2024/01/01 11:21:09;;;;;;;12.30;2.73;;;;;;;8.91;81.56;100067.88;5023555;28;20515;-66
2024/01/01 11:23:41;;;;;;;13.00;2.72;;;;;;;8.89;81.28;100066.03;5032138;28;20518;-66
2024/01/01 11:26:22;;;;;;;8.18;2.03;;;;;;;8.85;81.88;100062.38;5031447;28;20405;-66
2024/01/01 11:28:47;;;;;;;11.27;2.67;;;;;;;8.81;82.42;100063.13;5031698;28;20075;-66